createdAt,value
2018-03-23T00:02:09.231Z,5.17
2018-03-23T00:04:37.158Z,4.97
2018-03-23T00:07:04.785Z,5.13
2018-03-23T00:09:32.412Z,5.37
2018-03-23T00:12:00.033Z,5.50
2018-03-23T00:14:27.673Z,5.30
2018-03-23T00:16:55.764Z,5.33
2018-03-23T00:19:23.611Z,5.73
2018-03-23T00:21:51.258Z,5.50
2018-03-23T00:24:18.833Z,6.07
2018-03-23T00:26:46.455Z,6.37
2018-03-23T00:29:14.202Z,6.20
2018-03-23T00:31:41.842Z,6.10
2018-03-23T00:34:09.473Z,6.23
2018-03-23T00:36:37.072Z,6.70
2018-03-23T00:39:05.561Z,6.13
2018-03-23T00:41:33.505Z,6.77
2018-03-23T00:44:01.087Z,6.63
2018-03-23T00:46:28.672Z,7.27
2018-03-23T00:48:56.600Z,7.47
2018-03-23T00:51:24.184Z,7.73
2018-03-23T00:53:51.777Z,7.93
2018-03-23T00:56:19.508Z,7.90
2018-03-23T00:58:47.075Z,7.90
2018-03-23T01:01:14.682Z,8.10
2018-03-23T01:03:42.325Z,9.00
2018-03-23T01:06:09.907Z,9.13
2018-03-23T01:08:37.554Z,9.17
2018-03-23T01:11:06.156Z,9.10
2018-03-23T01:13:33.737Z,9.37
2018-03-23T01:16:01.404Z,9.80
2018-03-23T01:18:29.045Z,9.47
2018-03-23T01:20:56.705Z,9.73
2018-03-23T01:23:24.293Z,9.90
2018-03-23T01:25:51.947Z,9.80
2018-03-23T01:28:19.533Z,10.30
2018-03-23T01:30:47.126Z,10.00
2018-03-23T01:33:15.032Z,9.53
2018-03-23T01:35:42.669Z,9.30
2018-03-23T01:38:10.273Z,8.93
2018-03-23T01:40:37.887Z,10.17
2018-03-23T01:43:05.544Z,9.73
2018-03-23T01:45:34.050Z,9.20
2018-03-23T01:48:01.712Z,8.80
2018-03-23T01:50:29.366Z,9.73
2018-03-23T01:52:56.944Z,9.73
2018-03-23T01:55:24.592Z,8.57
2018-03-23T01:57:52.170Z,9.23
2018-03-23T02:00:19.758Z,8.87
2018-03-23T02:02:47.771Z,9.73
2018-03-23T02:05:15.368Z,8.80
2018-03-23T02:07:42.963Z,7.80
2018-03-23T02:10:10.601Z,8.20
2018-03-23T02:12:38.238Z,7.20
2018-03-23T02:15:05.906Z,7.73
2018-03-23T02:17:33.984Z,7.10
2018-03-23T02:20:01.646Z,6.80
2018-03-23T02:22:29.231Z,7.20
2018-03-23T02:24:56.927Z,6.13
2018-03-23T02:27:24.504Z,6.20
2018-03-23T02:29:52.088Z,6.10
2018-03-23T02:32:19.961Z,5.80
2018-03-23T02:34:47.539Z,5.93
2018-03-23T02:37:15.167Z,6.13
2018-03-23T02:39:42.784Z,5.50
2018-03-23T02:42:10.394Z,5.73
2018-03-23T02:44:37.973Z,5.00
2018-03-23T02:47:05.856Z,4.80
2018-03-23T02:49:33.441Z,4.83
2018-03-23T02:52:01.042Z,5.20
2018-03-23T02:54:28.682Z,6.03
2018-03-23T02:56:56.245Z,5.73
2018-03-23T02:59:23.802Z,5.37
2018-03-23T03:01:51.412Z,4.53
2018-03-23T03:04:19.489Z,3.70
2018-03-23T03:06:47.117Z,3.20
2018-03-23T03:09:15.002Z,2.83
2018-03-23T03:11:43.232Z,2.67
2018-03-23T03:14:10.872Z,2.20
2018-03-23T03:16:38.525Z,2.23
2018-03-23T03:19:06.178Z,1.90
2018-03-23T03:21:33.746Z,1.97
2018-03-23T03:24:01.592Z,1.90
2018-03-23T03:26:29.214Z,1.53
2018-03-23T03:28:56.787Z,1.67
2018-03-23T03:31:24.442Z,2.07
2018-03-23T03:33:52.000Z,2.57
2018-03-23T03:36:19.550Z,3.20
2018-03-23T03:38:47.199Z,3.20
2018-03-23T03:41:14.750Z,3.43
2018-03-23T03:43:42.307Z,3.40
2018-03-23T03:46:10.185Z,2.80
2018-03-23T03:48:38.405Z,2.60
2018-03-23T03:51:05.972Z,2.63
2018-03-23T03:53:33.604Z,2.73
2018-03-23T03:56:01.234Z,2.47
2018-03-23T03:58:28.806Z,3.00
2018-03-23T04:00:56.434Z,2.77
2018-03-23T04:03:23.985Z,2.43
2018-03-23T04:05:51.551Z,2.00
2018-03-23T04:08:19.404Z,1.80
2018-03-23T04:10:46.978Z,1.17
2018-03-23T04:13:14.532Z,2.03
2018-03-23T04:15:42.181Z,2.63
2018-03-23T04:18:09.738Z,3.00
2018-03-23T04:20:37.452Z,3.17
2018-03-23T04:23:05.063Z,2.50
2018-03-23T04:25:32.628Z,2.60
2018-03-23T04:28:00.206Z,2.73
2018-03-23T04:30:28.131Z,10.37
2018-03-23T04:32:55.861Z,3.07
2018-03-23T04:35:23.436Z,1.87
2018-03-23T04:37:51.077Z,1.90
2018-03-23T04:40:18.640Z,1.80
2018-03-23T04:42:46.275Z,2.07
2018-03-23T04:45:14.152Z,2.43
2018-03-23T04:47:41.737Z,2.80
2018-03-23T04:50:09.349Z,5.23
2018-03-23T04:52:36.961Z,4.37
2018-03-23T04:55:04.535Z,4.67
2018-03-23T04:57:32.114Z,3.60
2018-03-23T04:59:59.726Z,3.50
2018-03-23T05:02:27.297Z,4.37
2018-03-23T05:04:54.867Z,6.50
2018-03-23T05:07:23.907Z,5.83
2018-03-23T05:09:51.488Z,4.73
2018-03-23T05:12:19.048Z,3.03
2018-03-23T05:14:46.684Z,2.10
2018-03-23T05:17:14.236Z,1.77
2018-03-23T05:19:41.873Z,1.00
2018-03-23T05:22:09.864Z,0.70
2018-03-23T05:24:37.482Z,0.50
2018-03-23T05:27:05.094Z,0.70
2018-03-23T05:29:32.853Z,1.00
2018-03-23T05:32:00.478Z,1.10
2018-03-23T05:34:28.046Z,0.90
2018-03-23T05:36:55.677Z,0.90
2018-03-23T05:39:23.250Z,1.30
2018-03-23T05:41:50.825Z,1.80
2018-03-23T05:44:18.429Z,1.17
2018-03-23T05:46:45.991Z,1.40
2018-03-23T05:49:13.569Z,1.50
2018-03-23T05:51:41.221Z,3.27
2018-03-23T05:54:08.778Z,4.07
2018-03-23T05:56:36.344Z,3.77
2018-03-23T05:59:04.003Z,4.80
2018-03-23T06:01:31.609Z,4.83
2018-03-23T06:04:00.387Z,4.40
2018-03-23T06:06:28.260Z,4.47
2018-03-23T06:08:55.845Z,7.50
2018-03-23T06:11:23.434Z,12.50
2018-03-23T06:13:51.127Z,11.37
2018-03-23T06:16:20.971Z,11.13
2018-03-23T06:18:48.590Z,9.33
2018-03-23T06:21:16.468Z,8.63
2018-03-23T06:23:44.296Z,10.40
2018-03-23T06:26:11.961Z,15.27
2018-03-23T06:28:39.650Z,7.67
2018-03-23T06:31:07.230Z,5.80
2018-03-23T06:33:34.810Z,7.43
2018-03-23T06:36:02.462Z,7.20
2018-03-23T06:38:30.024Z,7.40
2018-03-23T06:40:57.638Z,7.77
2018-03-23T06:43:25.263Z,8.50
2018-03-23T06:45:52.874Z,9.30
2018-03-23T06:48:20.786Z,10.77
2018-03-23T06:50:48.521Z,10.10
2018-03-23T06:53:16.093Z,9.50
2018-03-23T06:55:43.666Z,9.37
2018-03-23T06:58:11.528Z,9.50
2018-03-23T07:00:39.183Z,8.33
2018-03-23T07:03:06.777Z,7.83
2018-03-23T07:05:34.474Z,5.50
2018-03-23T07:08:02.050Z,4.70
2018-03-23T07:10:29.634Z,4.27
2018-03-23T07:12:57.257Z,7.30
2018-03-23T07:15:24.921Z,7.47
2018-03-23T07:17:52.584Z,9.17
2018-03-23T07:20:20.239Z,9.87
2018-03-23T07:22:47.854Z,10.13
2018-03-23T07:25:15.603Z,8.13
2018-03-23T07:27:43.221Z,4.80
2018-03-23T07:30:10.796Z,4.40
2018-03-23T07:32:38.466Z,3.80
2018-03-23T07:35:06.091Z,3.77
2018-03-23T07:37:34.558Z,3.60
2018-03-23T07:40:02.154Z,3.30
2018-03-23T07:42:29.830Z,3.50
2018-03-23T07:44:57.409Z,3.40
2018-03-23T07:47:24.990Z,3.47
2018-03-23T07:49:52.619Z,2.20
2018-03-23T07:52:20.716Z,1.73
2018-03-23T07:54:48.318Z,1.30
2018-03-23T07:57:16.248Z,1.50
2018-03-23T07:59:43.875Z,1.60
2018-03-23T08:02:11.474Z,1.70
2018-03-23T08:04:39.122Z,1.30
2018-03-23T08:07:06.804Z,1.57
2018-03-23T08:09:34.440Z,1.33
2018-03-23T08:12:02.088Z,4.13
2018-03-23T08:14:28.947Z,1.60
2018-03-23T08:16:56.535Z,1.23
2018-03-23T08:19:24.184Z,1.53
2018-03-23T08:21:52.617Z,1.33
2018-03-23T08:24:20.386Z,1.37
2018-03-23T08:26:48.143Z,1.57
2018-03-23T08:29:15.726Z,1.70
2018-03-23T08:31:43.300Z,1.60
2018-03-23T08:34:11.208Z,1.57
2018-03-23T08:36:38.794Z,1.50
2018-03-23T08:39:06.419Z,1.60
2018-03-23T08:41:34.069Z,1.53
2018-03-23T08:44:01.627Z,1.77
2018-03-23T08:46:29.218Z,1.90
2018-03-23T08:48:57.154Z,1.93
2018-03-23T08:51:24.745Z,1.90
2018-03-23T08:53:52.337Z,1.90
2018-03-23T08:56:19.969Z,2.10
2018-03-23T08:58:47.543Z,2.43
2018-03-23T09:01:15.140Z,2.73
2018-03-23T09:03:42.816Z,3.47
2018-03-23T09:06:10.466Z,3.40
2018-03-23T09:08:38.603Z,3.77
2018-03-23T09:11:06.449Z,2.93
2018-03-23T09:13:34.066Z,2.93
2018-03-23T09:16:01.663Z,2.50
2018-03-23T09:18:29.280Z,2.47
2018-03-23T09:20:56.937Z,2.40
2018-03-23T09:23:24.520Z,2.60
2018-03-23T09:25:52.195Z,2.50
2018-03-23T09:28:19.949Z,2.37
2018-03-23T09:30:47.520Z,1.80
2018-03-23T09:33:15.138Z,1.93
2018-03-23T09:35:42.749Z,1.70
2018-03-23T09:38:10.370Z,2.00
2018-03-23T09:40:37.977Z,2.63
2018-03-23T09:43:05.558Z,2.90
2018-03-23T09:45:33.117Z,2.00
2018-03-23T09:48:00.831Z,2.30
2018-03-23T09:50:28.402Z,2.07
2018-03-23T09:52:56.009Z,2.87
2018-03-23T09:55:23.951Z,2.17
2018-03-23T09:57:51.517Z,2.20
2018-03-23T10:00:19.116Z,2.50
2018-03-23T10:02:46.762Z,4.00
2018-03-23T10:05:14.337Z,2.27
2018-03-23T10:07:41.944Z,2.20
2018-03-23T10:10:09.569Z,2.00
2018-03-23T10:12:37.145Z,2.10
2018-03-23T10:15:04.754Z,2.13
2018-03-23T10:17:32.643Z,2.07
2018-03-23T10:20:00.216Z,2.20
2018-03-23T10:22:27.866Z,2.00
2018-03-23T10:24:55.484Z,2.27
2018-03-23T10:27:23.100Z,2.23
2018-03-23T10:29:50.858Z,2.10
2018-03-23T10:32:19.128Z,2.03
2018-03-23T10:34:46.680Z,2.27
2018-03-23T10:37:14.266Z,2.57
2018-03-23T10:39:41.990Z,2.40
2018-03-23T10:42:09.569Z,5.77
2018-03-23T10:44:37.150Z,2.77
2018-03-23T10:47:04.794Z,3.13
2018-03-23T10:49:32.393Z,2.87
2018-03-23T10:51:59.966Z,2.87
2018-03-23T10:54:27.599Z,3.60
2018-03-23T10:56:55.230Z,3.50
2018-03-23T10:59:22.816Z,2.83
2018-03-23T11:01:55.982Z,2.90
2018-03-23T11:04:23.575Z,2.90
2018-03-23T11:06:51.152Z,3.00
2018-03-23T11:09:18.833Z,2.57
2018-03-23T11:11:46.447Z,2.73
2018-03-23T11:14:14.016Z,2.67
2018-03-23T11:16:41.633Z,2.97
2018-03-23T11:19:09.197Z,2.73
2018-03-23T11:21:36.840Z,2.70
2018-03-23T11:24:04.498Z,3.70
2018-03-23T11:26:32.080Z,3.10
2018-03-23T11:28:59.645Z,3.10
2018-03-23T11:31:27.385Z,2.87
2018-03-23T11:33:54.965Z,2.90
2018-03-23T11:36:22.563Z,2.93
2018-03-23T11:38:50.205Z,2.70
2018-03-23T11:41:18.691Z,3.20
2018-03-23T11:43:46.263Z,2.97
2018-03-23T11:46:13.918Z,3.20
2018-03-23T11:48:42.365Z,3.20
2018-03-23T11:51:09.956Z,2.73
2018-03-23T11:53:37.954Z,3.00
2018-03-23T11:56:05.549Z,2.67
2018-03-23T11:58:33.124Z,2.80
2018-03-23T12:01:00.808Z,2.97
2018-03-23T12:03:28.421Z,2.80
2018-03-23T12:05:56.011Z,3.43
2018-03-23T12:08:23.697Z,3.17
2018-03-23T12:10:51.298Z,2.67
2018-03-23T12:13:18.882Z,2.87
2018-03-23T12:15:46.566Z,3.03
2018-03-23T12:18:14.145Z,2.97
2018-03-23T12:20:41.732Z,3.73
2018-03-23T12:23:09.394Z,3.70
2018-03-23T12:25:36.979Z,4.37
2018-03-23T12:28:04.558Z,3.83
2018-03-23T12:30:32.490Z,3.20
2018-03-23T12:33:00.604Z,3.77
2018-03-23T12:35:28.248Z,4.30
2018-03-23T12:37:55.915Z,4.93
2018-03-23T12:40:23.513Z,3.77
2018-03-23T12:42:51.111Z,3.27
2018-03-23T12:45:18.822Z,3.43
2018-03-23T12:47:46.406Z,3.20
2018-03-23T12:50:13.987Z,2.63
2018-03-23T12:52:41.612Z,3.07
2018-03-23T12:55:09.193Z,2.63
2018-03-23T12:57:36.799Z,3.43
2018-03-23T13:00:04.785Z,2.50
2018-03-23T13:02:32.366Z,2.90
2018-03-23T13:04:59.946Z,3.63
2018-03-23T13:07:27.572Z,3.30
2018-03-23T13:09:55.176Z,2.80
2018-03-23T13:12:22.770Z,3.20
2018-03-23T13:14:50.481Z,2.97
2018-03-23T13:17:18.077Z,4.73
2018-03-23T13:19:45.652Z,7.87
2018-03-23T13:22:13.317Z,5.33
2018-03-23T13:24:41.005Z,5.50
2018-03-23T13:27:08.634Z,5.10
2018-03-23T13:29:36.301Z,4.93
2018-03-23T13:32:03.917Z,5.40
2018-03-23T13:34:31.665Z,6.23
2018-03-23T13:36:59.312Z,5.13
2018-03-23T13:39:26.984Z,10.20
2018-03-23T13:41:55.406Z,7.20
2018-03-23T13:44:23.101Z,6.87
2018-03-23T13:46:50.698Z,5.23
2018-03-23T13:49:18.334Z,5.60
2018-03-23T13:51:46.003Z,5.47
2018-03-23T13:54:14.150Z,6.00
2018-03-23T13:56:41.766Z,4.60
2018-03-23T13:59:15.704Z,4.60
2018-03-23T14:01:43.376Z,4.40
2018-03-23T14:04:11.046Z,4.23
2018-03-23T14:06:38.803Z,5.30
2018-03-23T14:09:06.511Z,4.60
2018-03-23T14:11:34.117Z,4.47
2018-03-23T14:14:01.811Z,6.33
2018-03-23T14:16:29.436Z,5.47
2018-03-23T14:18:57.179Z,4.87
2018-03-23T14:21:24.877Z,8.10
2018-03-23T14:23:52.509Z,8.03
2018-03-23T14:26:20.235Z,18.40
2018-03-23T14:28:48.037Z,7.33
2018-03-23T14:31:15.689Z,6.80
2018-03-23T14:33:43.431Z,7.23
2018-03-23T14:36:11.515Z,6.90
2018-03-23T14:38:39.143Z,6.70
2018-03-23T14:41:06.826Z,5.30
2018-03-23T14:43:34.471Z,6.10
2018-03-23T14:46:02.089Z,4.20
2018-03-23T14:48:29.720Z,6.40
2018-03-23T14:50:57.442Z,22.97
2018-03-23T14:53:25.195Z,7.77
2018-03-23T14:55:52.793Z,6.80
2018-03-23T14:58:20.452Z,4.10
2018-03-23T15:00:48.058Z,3.10
2018-03-23T15:03:15.722Z,4.47
2018-03-23T15:05:43.850Z,3.73
2018-03-23T15:08:11.486Z,4.53
2018-03-23T15:10:39.155Z,6.87
2018-03-23T15:13:06.831Z,8.03
2018-03-23T15:15:34.530Z,8.33
2018-03-23T15:18:02.192Z,7.10
2018-03-23T15:20:29.862Z,4.80
2018-03-23T15:22:57.466Z,7.13
2018-03-23T15:25:25.108Z,12.93
2018-03-23T15:27:53.038Z,9.63
2018-03-23T15:30:19.948Z,9.10
2018-03-23T15:32:47.615Z,6.50
2018-03-23T15:35:15.319Z,6.03
2018-03-23T15:37:43.098Z,6.33
2018-03-23T15:40:11.295Z,7.67
2018-03-23T15:42:38.926Z,6.47
2018-03-23T15:45:06.586Z,7.23
2018-03-23T15:47:34.256Z,6.33
2018-03-23T15:50:01.972Z,10.03
2018-03-23T15:52:29.739Z,16.13
2018-03-23T15:54:57.677Z,13.63
2018-03-23T15:57:25.549Z,13.77
2018-03-23T15:59:53.283Z,15.23
2018-03-23T16:02:21.185Z,15.83
2018-03-23T16:04:49.155Z,19.67
2018-03-23T16:07:16.958Z,10.97
2018-03-23T16:09:44.802Z,9.03
2018-03-23T16:12:12.701Z,8.37
2018-03-23T16:14:40.470Z,7.47
2018-03-23T16:17:08.293Z,6.90
2018-03-23T16:19:35.991Z,6.00
2018-03-23T16:22:03.881Z,5.43
2018-03-23T16:24:32.218Z,5.67
2018-03-23T16:27:00.128Z,5.73
2018-03-23T16:29:28.015Z,5.90
2018-03-23T16:31:55.948Z,5.03
2018-03-23T16:34:24.181Z,5.10
2018-03-23T16:36:52.924Z,5.50
2018-03-23T16:39:20.895Z,6.40
2018-03-23T16:41:48.839Z,6.87
2018-03-23T16:44:16.809Z,5.23
2018-03-23T16:46:44.717Z,5.47
2018-03-23T16:49:12.657Z,5.63
2018-03-23T16:51:40.529Z,5.47
2018-03-23T16:54:08.450Z,5.30
2018-03-23T16:56:36.376Z,6.30
2018-03-23T16:59:04.271Z,5.53
2018-03-23T17:01:32.160Z,6.10
2018-03-23T17:04:00.399Z,6.40
2018-03-23T17:06:29.198Z,6.90
2018-03-23T17:08:57.040Z,6.57
2018-03-23T17:11:25.214Z,6.70
2018-03-23T17:13:53.233Z,9.13
2018-03-23T17:16:25.072Z,10.77
2018-03-23T17:18:52.985Z,8.17
2018-03-23T17:21:20.876Z,8.30
2018-03-23T17:23:48.766Z,8.13
2018-03-23T17:26:16.712Z,7.87
2018-03-23T17:28:44.621Z,7.50
2018-03-23T17:31:12.585Z,6.60
2018-03-23T17:33:40.571Z,6.80
2018-03-23T17:36:08.507Z,8.87
2018-03-23T17:38:36.451Z,7.97
2018-03-23T17:41:05.005Z,10.80
2018-03-23T17:43:32.907Z,11.10
2018-03-23T17:46:00.844Z,9.90
2018-03-23T17:48:28.877Z,8.63
2018-03-23T17:50:56.763Z,7.77
2018-03-23T17:53:24.663Z,7.87
2018-03-23T17:55:53.403Z,8.07
2018-03-23T17:58:21.915Z,7.90
2018-03-23T18:00:49.815Z,8.47
2018-03-23T18:03:17.859Z,8.23
2018-03-23T18:05:45.758Z,7.93
2018-03-23T18:08:13.718Z,6.83
2018-03-23T18:10:42.556Z,6.43
2018-03-23T18:13:10.447Z,5.50
2018-03-23T18:15:38.338Z,5.43
2018-03-23T18:18:06.287Z,5.70
2018-03-23T18:20:34.184Z,4.77
2018-03-23T18:23:02.713Z,4.73
2018-03-23T18:25:30.635Z,4.30
2018-03-23T18:27:58.494Z,4.27
2018-03-23T18:30:26.378Z,4.20
2018-03-23T18:32:54.313Z,5.00
2018-03-23T18:35:22.247Z,6.10
2018-03-23T18:37:50.130Z,7.57
2018-03-23T18:40:18.152Z,5.53
2018-03-23T18:42:46.448Z,4.00
2018-03-23T18:45:14.376Z,4.23
2018-03-23T18:47:42.622Z,9.07
2018-03-23T18:50:10.587Z,12.70
2018-03-23T18:52:38.519Z,6.57
2018-03-23T18:55:06.553Z,5.30
2018-03-23T18:57:34.520Z,5.80
2018-03-23T19:00:02.566Z,5.60
2018-03-23T19:02:30.523Z,6.80
2018-03-23T19:04:58.399Z,6.47
2018-03-23T19:07:26.331Z,4.70
2018-03-23T19:09:54.265Z,4.17
2018-03-23T19:12:22.202Z,4.77
2018-03-23T19:14:50.191Z,4.67
2018-03-23T19:17:18.452Z,4.83
2018-03-23T19:19:46.459Z,4.57
2018-03-23T19:22:15.268Z,4.60
2018-03-23T19:24:43.212Z,5.73
2018-03-23T19:27:11.202Z,8.13
2018-03-23T19:29:39.139Z,7.97
2018-03-23T19:32:07.157Z,10.17
2018-03-23T19:34:35.162Z,7.97
2018-03-23T19:37:03.051Z,10.03
2018-03-23T19:39:31.337Z,5.20
2018-03-23T19:41:59.565Z,6.00
2018-03-23T19:44:27.684Z,7.67
2018-03-23T19:46:56.683Z,5.43
2018-03-23T19:49:24.656Z,5.53
2018-03-23T19:51:52.574Z,7.67
2018-03-23T19:54:20.535Z,9.57
2018-03-23T19:56:48.407Z,9.80
2018-03-23T19:59:16.321Z,9.13
2018-03-23T20:01:44.754Z,9.17
2018-03-23T20:04:12.667Z,11.17
2018-03-23T20:06:40.596Z,10.53
2018-03-23T20:09:08.929Z,13.13
2018-03-23T20:11:37.057Z,15.40
2018-03-23T20:14:11.232Z,15.60
2018-03-23T20:16:39.127Z,14.50
2018-03-23T20:19:07.020Z,13.30
2018-03-23T20:21:34.980Z,13.47
2018-03-23T20:24:08.365Z,13.50
2018-03-23T20:26:36.459Z,13.37
2018-03-23T20:29:04.361Z,11.53
2018-03-23T20:31:37.854Z,10.87
2018-03-23T20:34:05.768Z,11.10
2018-03-23T20:36:33.722Z,13.10
2018-03-23T20:39:01.868Z,11.73
2018-03-23T20:41:29.761Z,12.47
2018-03-23T20:43:57.634Z,17.97
2018-03-23T20:46:25.731Z,9.87
2018-03-23T20:48:53.614Z,7.50
2018-03-23T20:51:21.498Z,6.93
2018-03-23T20:53:49.442Z,6.30
2018-03-23T20:56:17.323Z,6.00
2018-03-23T20:58:45.275Z,6.00
2018-03-23T21:01:13.201Z,7.13
2018-03-23T21:03:41.078Z,7.30
2018-03-23T21:06:08.949Z,9.30
2018-03-23T21:08:36.883Z,12.50
2018-03-23T21:11:04.793Z,11.73
2018-03-23T21:13:32.764Z,10.80
2018-03-23T21:16:00.899Z,11.47
2018-03-23T21:18:28.745Z,11.73
2018-03-23T21:20:56.623Z,10.03
2018-03-23T21:23:24.717Z,9.13
2018-03-23T21:25:52.591Z,8.23
2018-03-23T21:28:21.562Z,8.67
2018-03-23T21:30:50.195Z,9.93
2018-03-23T21:33:18.051Z,9.30
2018-03-23T21:35:45.880Z,8.30
2018-03-23T21:38:13.888Z,7.67
2018-03-23T21:40:41.780Z,7.93
2018-03-23T21:43:09.760Z,8.10
2018-03-23T21:45:37.574Z,7.67
2018-03-23T21:48:05.481Z,7.10
2018-03-23T21:50:33.167Z,7.90
2018-03-23T21:53:00.869Z,7.83
2018-03-23T21:55:28.521Z,8.37
2018-03-23T21:57:57.087Z,8.70
2018-03-23T22:00:24.755Z,9.83
2018-03-23T22:02:52.356Z,8.17
2018-03-23T22:05:19.920Z,8.43
2018-03-23T22:07:47.537Z,7.97
2018-03-23T22:10:15.173Z,7.27
2018-03-23T22:12:42.736Z,8.37
2018-03-23T22:15:10.407Z,8.00
2018-03-23T22:17:37.985Z,8.77
2018-03-23T22:20:05.652Z,8.47
2018-03-23T22:22:33.976Z,8.10
2018-03-23T22:25:01.588Z,8.00
2018-03-23T22:27:29.422Z,7.70
2018-03-23T22:29:57.244Z,7.60
2018-03-23T22:32:24.904Z,7.50
2018-03-23T22:34:52.567Z,7.30
2018-03-23T22:37:20.217Z,8.53
2018-03-23T22:39:47.899Z,8.63
2018-03-23T22:42:15.555Z,9.07
2018-03-23T22:44:43.255Z,8.50
2018-03-23T22:47:10.821Z,9.43
2018-03-23T22:49:38.570Z,7.73
2018-03-23T22:52:06.214Z,8.40
2018-03-23T22:54:33.807Z,8.43
2018-03-23T22:57:01.385Z,7.83
2018-03-23T22:59:29.323Z,8.27
2018-03-23T23:01:56.905Z,8.07
2018-03-23T23:04:24.467Z,9.00
2018-03-23T23:06:52.097Z,8.47
2018-03-23T23:09:21.732Z,9.13
2018-03-23T23:11:49.389Z,8.60
2018-03-23T23:14:17.311Z,7.80
2018-03-23T23:16:44.944Z,8.10
2018-03-23T23:19:12.583Z,8.17
2018-03-23T23:21:40.281Z,7.80
2018-03-23T23:24:07.915Z,7.97
2018-03-23T23:26:35.484Z,8.40
2018-03-23T23:29:03.113Z,7.63
2018-03-23T23:31:30.681Z,6.97
2018-03-23T23:33:58.332Z,6.80
2018-03-23T23:36:27.207Z,7.03
2018-03-23T23:38:54.768Z,6.77
2018-03-23T23:41:22.328Z,7.07
2018-03-23T23:43:49.937Z,5.97
2018-03-23T23:46:17.527Z,6.27
2018-03-23T23:48:45.145Z,7.13
2018-03-23T23:51:13.424Z,7.00
2018-03-23T23:53:41.055Z,7.13
2018-03-23T23:56:08.633Z,6.87
2018-03-23T23:58:36.265Z,7.57
